sensor_id;sensor_type;location;lat;lon;timestamp;P1;durP1;ratioP1;P2;durP2;ratioP2
24409;SDS011;12543;53.364;-1.504;2022-09-17T08:53:50;0.95;;;0.30;;
24409;SDS011;12543;53.364;-1.504;2022-09-17T08:56:24;0.50;;;0.30;;
24409;SDS011;12543;53.364;-1.504;2022-09-17T09:01:26;2.83;;;0.40;;
24409;SDS011;12543;53.364;-1.504;2022-09-17T09:07:01;0.40;;;0.30;;
24409;SDS011;12543;53.364;-1.504;2022-09-17T09:09:48;1.30;;;0.40;;
24409;SDS011;12543;53.364;-1.504;2022-09-17T09:12:22;1.23;;;0.50;;
24409;SDS011;12543;53.364;-1.504;2022-09-17T09:18:00;1.10;;;0.40;;
24409;SDS011;12543;53.364;-1.504;2022-09-17T09:20:39;0.88;;;0.40;;
24409;SDS011;12543;53.364;-1.504;2022-09-17T09:23:25;0.80;;;0.35;;
24409;SDS011;12543;53.364;-1.504;2022-09-17T09:26:13;1.23;;;0.40;;
24409;SDS011;12543;53.364;-1.504;2022-09-17T09:36:44;1.67;;;0.50;;
24409;SDS011;12543;53.364;-1.504;2022-09-17T09:39:14;0.95;;;0.30;;
24409;SDS011;12543;53.364;-1.504;2022-09-17T09:41:49;1.13;;;0.22;;
24409;SDS011;12543;53.364;-1.504;2022-09-17T09:44:24;1.25;;;0.40;;
24409;SDS011;12543;53.364;-1.504;2022-09-17T09:56:41;1.60;;;0.50;;
24409;SDS011;12543;53.364;-1.504;2022-09-17T09:59:34;1.48;;;0.55;;
24409;SDS011;12543;53.364;-1.504;2022-09-17T10:02:01;1.37;;;0.40;;
24409;SDS011;12543;53.364;-1.504;2022-09-17T10:04:29;0.73;;;0.30;;
24409;SDS011;12543;53.364;-1.504;2022-09-17T10:07:00;1.80;;;0.50;;
24409;SDS011;12543;53.364;-1.504;2022-09-17T10:09:29;1.50;;;0.68;;
24409;SDS011;12543;53.364;-1.504;2022-09-17T10:12:05;0.30;;;0.20;;
24409;SDS011;12543;53.364;-1.504;2022-09-17T10:14:43;1.52;;;0.47;;
24409;SDS011;12543;53.364;-1.504;2022-09-17T10:17:18;1.00;;;0.35;;
24409;SDS011;12543;53.364;-1.504;2022-09-17T10:22:32;1.55;;;0.50;;
24409;SDS011;12543;53.364;-1.504;2022-09-17T10:25:20;2.00;;;0.50;;
24409;SDS011;12543;53.364;-1.504;2022-09-17T10:27:51;1.60;;;0.40;;
24409;SDS011;12543;53.364;-1.504;2022-09-17T10:30:18;2.25;;;0.43;;
24409;SDS011;12543;53.364;-1.504;2022-09-17T10:35:56;0.87;;;0.30;;
24409;SDS011;12543;53.364;-1.504;2022-09-17T10:43:42;1.65;;;0.40;;
24409;SDS011;12543;53.364;-1.504;2022-09-17T10:46:11;1.40;;;0.60;;
24409;SDS011;12543;53.364;-1.504;2022-09-17T10:52:06;1.35;;;0.47;;
24409;SDS011;12543;53.364;-1.504;2022-09-17T11:00:29;1.33;;;0.50;;
24409;SDS011;12543;53.364;-1.504;2022-09-17T11:10:39;0.73;;;0.40;;
24409;SDS011;12543;53.364;-1.504;2022-09-17T11:13:16;1.50;;;0.40;;
24409;SDS011;12543;53.364;-1.504;2022-09-17T11:18:44;1.33;;;0.47;;
24409;SDS011;12543;53.364;-1.504;2022-09-17T11:24:43;0.60;;;0.30;;
24409;SDS011;12543;53.364;-1.504;2022-09-17T11:30:16;0.88;;;0.30;;
24409;SDS011;12543;53.364;-1.504;2022-09-17T11:35:21;1.58;;;0.43;;
24409;SDS011;12543;53.364;-1.504;2022-09-17T11:38:09;0.88;;;0.30;;
24409;SDS011;12543;53.364;-1.504;2022-09-17T11:41:18;0.68;;;0.38;;
24409;SDS011;12543;53.364;-1.504;2022-09-17T11:46:56;0.90;;;0.30;;
24409;SDS011;12543;53.364;-1.504;2022-09-17T11:52:10;0.57;;;0.20;;
24409;SDS011;12543;53.364;-1.504;2022-09-17T11:55:00;0.47;;;0.40;;
24409;SDS011;12543;53.364;-1.504;2022-09-17T11:57:50;0.45;;;0.40;;
24409;SDS011;12543;53.364;-1.504;2022-09-17T12:00:23;0.73;;;0.45;;
24409;SDS011;12543;53.364;-1.504;2022-09-17T12:05:23;2.83;;;0.40;;
24409;SDS011;12543;53.364;-1.504;2022-09-17T12:13:39;1.55;;;0.40;;
24409;SDS011;12543;53.364;-1.504;2022-09-17T12:16:25;0.88;;;0.40;;
24409;SDS011;12543;53.364;-1.504;2022-09-17T12:19:02;0.38;;;0.30;;
24409;SDS011;12543;53.364;-1.504;2022-09-17T12:41:13;0.40;;;0.28;;
24409;SDS011;12543;53.364;-1.504;2022-09-17T12:56:15;0.40;;;0.28;;
24409;SDS011;12543;53.364;-1.504;2022-09-17T13:18:43;0.35;;;0.35;;
24409;SDS011;12543;53.364;-1.504;2022-09-17T13:21:21;0.93;;;0.35;;
24409;SDS011;12543;53.364;-1.504;2022-09-17T13:23:55;0.52;;;0.30;;
24409;SDS011;12543;53.364;-1.504;2022-09-17T13:26:36;0.17;;;0.17;;
24409;SDS011;12543;53.364;-1.504;2022-09-17T13:29:05;0.20;;;0.20;;
24409;SDS011;12543;53.364;-1.504;2022-09-17T13:40:00;0.40;;;0.40;;
24409;SDS011;12543;53.364;-1.504;2022-09-17T13:42:15;0.40;;;0.30;;
24409;SDS011;12543;53.364;-1.504;2022-09-17T13:44:46;0.35;;;0.30;;
24409;SDS011;12543;53.364;-1.504;2022-09-17T13:47:18;0.32;;;0.32;;
24409;SDS011;12543;53.364;-1.504;2022-09-17T13:49:48;0.45;;;0.30;;
24409;SDS011;12543;53.364;-1.504;2022-09-17T13:52:29;0.25;;;0.20;;
24409;SDS011;12543;53.364;-1.504;2022-09-17T13:55:02;0.20;;;0.20;;
24409;SDS011;12543;53.364;-1.504;2022-09-17T14:02:37;0.50;;;0.30;;
24409;SDS011;12543;53.364;-1.504;2022-09-17T14:05:38;0.67;;;0.40;;
24409;SDS011;12543;53.364;-1.504;2022-09-17T14:08:12;0.32;;;0.20;;
24409;SDS011;12543;53.364;-1.504;2022-09-17T14:10:49;0.75;;;0.20;;
24409;SDS011;12543;53.364;-1.504;2022-09-17T14:13:26;0.70;;;0.30;;
24409;SDS011;12543;53.364;-1.504;2022-09-17T14:17:06;1.30;;;0.40;;
24409;SDS011;12543;53.364;-1.504;2022-09-17T14:21:43;0.40;;;0.35;;
24409;SDS011;12543;53.364;-1.504;2022-09-17T14:24:44;0.47;;;0.30;;
24409;SDS011;12543;53.364;-1.504;2022-09-17T14:35:35;0.40;;;0.25;;
24409;SDS011;12543;53.364;-1.504;2022-09-17T14:43:34;0.20;;;0.20;;
24409;SDS011;12543;53.364;-1.504;2022-09-17T14:46:14;0.20;;;0.20;;
24409;SDS011;12543;53.364;-1.504;2022-09-17T14:48:44;0.20;;;0.20;;
24409;SDS011;12543;53.364;-1.504;2022-09-17T14:56:42;0.25;;;0.25;;
24409;SDS011;12543;53.364;-1.504;2022-09-17T14:59:20;0.70;;;0.20;;
24409;SDS011;12543;53.364;-1.504;2022-09-17T15:01:48;0.20;;;0.20;;
24409;SDS011;12543;53.364;-1.504;2022-09-17T15:07:07;1.23;;;0.30;;
24409;SDS011;12543;53.364;-1.504;2022-09-17T15:09:35;0.20;;;0.20;;
24409;SDS011;12543;53.364;-1.504;2022-09-17T15:12:02;0.28;;;0.20;;
24409;SDS011;12543;53.364;-1.504;2022-09-17T15:14:31;0.28;;;0.20;;
24409;SDS011;12543;53.364;-1.504;2022-09-17T15:17:02;0.68;;;0.20;;
24409;SDS011;12543;53.364;-1.504;2022-09-17T15:19:38;0.30;;;0.30;;
24409;SDS011;12543;53.364;-1.504;2022-09-17T15:22:09;0.17;;;0.15;;
24409;SDS011;12543;53.364;-1.504;2022-09-17T15:27:35;0.25;;;0.20;;
24409;SDS011;12543;53.364;-1.504;2022-09-17T15:30:13;0.95;;;0.20;;
24409;SDS011;12543;53.364;-1.504;2022-09-17T15:32:47;0.17;;;0.10;;
24409;SDS011;12543;53.364;-1.504;2022-09-17T15:35:35;0.68;;;0.30;;
24409;SDS011;12543;53.364;-1.504;2022-09-17T15:38:19;0.63;;;0.30;;
24409;SDS011;12543;53.364;-1.504;2022-09-17T15:40:51;1.02;;;0.30;;
24409;SDS011;12543;53.364;-1.504;2022-09-17T15:43:31;0.50;;;0.40;;
24409;SDS011;12543;53.364;-1.504;2022-09-17T15:46:43;1.20;;;0.40;;
24409;SDS011;12543;53.364;-1.504;2022-09-17T15:48:59;0.47;;;0.10;;
24409;SDS011;12543;53.364;-1.504;2022-09-17T15:51:29;0.52;;;0.30;;
24409;SDS011;12543;53.364;-1.504;2022-09-17T15:54:04;0.32;;;0.20;;
24409;SDS011;12543;53.364;-1.504;2022-09-17T15:56:35;0.38;;;0.20;;
24409;SDS011;12543;53.364;-1.504;2022-09-17T16:01:50;0.35;;;0.20;;
24409;SDS011;12543;53.364;-1.504;2022-09-17T16:04:33;0.20;;;0.20;;
24409;SDS011;12543;53.364;-1.504;2022-09-17T16:09:42;0.40;;;0.28;;
24409;SDS011;12543;53.364;-1.504;2022-09-17T16:12:11;0.40;;;0.30;;
24409;SDS011;12543;53.364;-1.504;2022-09-17T16:14:46;0.95;;;0.70;;
24409;SDS011;12543;53.364;-1.504;2022-09-17T16:19:48;1.13;;;0.50;;
24409;SDS011;12543;53.364;-1.504;2022-09-17T16:22:16;1.00;;;0.40;;
24409;SDS011;12543;53.364;-1.504;2022-09-17T16:24:45;0.75;;;0.40;;
24409;SDS011;12543;53.364;-1.504;2022-09-17T16:27:17;0.93;;;0.40;;
24409;SDS011;12543;53.364;-1.504;2022-09-17T16:29:49;2.60;;;0.20;;
24409;SDS011;12543;53.364;-1.504;2022-09-17T16:32:18;0.20;;;0.20;;
24409;SDS011;12543;53.364;-1.504;2022-09-17T16:37:14;0.35;;;0.30;;
24409;SDS011;12543;53.364;-1.504;2022-09-17T16:39:42;0.43;;;0.25;;
24409;SDS011;12543;53.364;-1.504;2022-09-17T16:42:16;0.52;;;0.43;;
24409;SDS011;12543;53.364;-1.504;2022-09-17T16:44:45;0.47;;;0.40;;
24409;SDS011;12543;53.364;-1.504;2022-09-17T16:47:13;1.60;;;0.40;;
24409;SDS011;12543;53.364;-1.504;2022-09-17T16:49:41;1.17;;;0.40;;
24409;SDS011;12543;53.364;-1.504;2022-09-17T16:52:09;0.30;;;0.30;;
24409;SDS011;12543;53.364;-1.504;2022-09-17T16:54:37;0.77;;;0.30;;
24409;SDS011;12543;53.364;-1.504;2022-09-17T16:57:05;0.93;;;0.50;;
24409;SDS011;12543;53.364;-1.504;2022-09-17T16:59:33;0.55;;;0.30;;
24409;SDS011;12543;53.364;-1.504;2022-09-17T17:02:01;0.63;;;0.50;;
24409;SDS011;12543;53.364;-1.504;2022-09-17T17:04:28;0.50;;;0.30;;
24409;SDS011;12543;53.364;-1.504;2022-09-17T17:06:57;1.55;;;0.40;;
24409;SDS011;12543;53.364;-1.504;2022-09-17T17:09:25;0.88;;;0.35;;
24409;SDS011;12543;53.364;-1.504;2022-09-17T17:11:53;0.68;;;0.50;;
24409;SDS011;12543;53.364;-1.504;2022-09-17T17:14:20;0.45;;;0.32;;
24409;SDS011;12543;53.364;-1.504;2022-09-17T17:16:48;1.02;;;0.50;;
24409;SDS011;12543;53.364;-1.504;2022-09-17T17:19:15;0.30;;;0.30;;
24409;SDS011;12543;53.364;-1.504;2022-09-17T17:21:44;0.30;;;0.30;;
24409;SDS011;12543;53.364;-1.504;2022-09-17T17:24:13;0.52;;;0.30;;
24409;SDS011;12543;53.364;-1.504;2022-09-17T17:26:40;0.57;;;0.40;;
24409;SDS011;12543;53.364;-1.504;2022-09-17T17:29:07;0.40;;;0.40;;
24409;SDS011;12543;53.364;-1.504;2022-09-17T17:31:34;1.00;;;0.40;;
24409;SDS011;12543;53.364;-1.504;2022-09-17T17:34:02;0.40;;;0.32;;
24409;SDS011;12543;53.364;-1.504;2022-09-17T17:36:30;0.90;;;0.40;;
24409;SDS011;12543;53.364;-1.504;2022-09-17T17:38:58;0.47;;;0.38;;
24409;SDS011;12543;53.364;-1.504;2022-09-17T17:41:26;0.30;;;0.30;;
24409;SDS011;12543;53.364;-1.504;2022-09-17T17:43:55;0.85;;;0.40;;
24409;SDS011;12543;53.364;-1.504;2022-09-17T17:46:23;0.50;;;0.40;;
24409;SDS011;12543;53.364;-1.504;2022-09-17T17:48:52;0.30;;;0.30;;
24409;SDS011;12543;53.364;-1.504;2022-09-17T17:54:10;1.40;;;0.50;;
24409;SDS011;12543;53.364;-1.504;2022-09-17T17:56:46;1.27;;;0.40;;
24409;SDS011;12543;53.364;-1.504;2022-09-17T17:59:13;0.70;;;0.30;;
24409;SDS011;12543;53.364;-1.504;2022-09-17T18:01:50;1.00;;;0.40;;
24409;SDS011;12543;53.364;-1.504;2022-09-17T18:04:18;2.03;;;0.30;;
24409;SDS011;12543;53.364;-1.504;2022-09-17T18:06:45;0.73;;;0.40;;
24409;SDS011;12543;53.364;-1.504;2022-09-17T18:09:13;1.48;;;0.40;;
24409;SDS011;12543;53.364;-1.504;2022-09-17T18:11:40;0.32;;;0.30;;
24409;SDS011;12543;53.364;-1.504;2022-09-17T18:14:08;0.68;;;0.30;;
24409;SDS011;12543;53.364;-1.504;2022-09-17T18:16:37;0.60;;;0.50;;
24409;SDS011;12543;53.364;-1.504;2022-09-17T18:19:05;0.47;;;0.40;;
24409;SDS011;12543;53.364;-1.504;2022-09-17T18:21:32;0.47;;;0.30;;
24409;SDS011;12543;53.364;-1.504;2022-09-17T18:23:59;0.88;;;0.50;;
24409;SDS011;12543;53.364;-1.504;2022-09-17T18:26:27;0.50;;;0.50;;
24409;SDS011;12543;53.364;-1.504;2022-09-17T18:28:55;0.93;;;0.43;;
24409;SDS011;12543;53.364;-1.504;2022-09-17T18:31:26;0.43;;;0.38;;
24409;SDS011;12543;53.364;-1.504;2022-09-17T18:36:23;1.25;;;0.50;;
24409;SDS011;12543;53.364;-1.504;2022-09-17T18:38:51;0.40;;;0.40;;
24409;SDS011;12543;53.364;-1.504;2022-09-17T18:43:46;0.55;;;0.40;;
24409;SDS011;12543;53.364;-1.504;2022-09-17T18:46:14;2.40;;;0.63;;
24409;SDS011;12543;53.364;-1.504;2022-09-17T18:48:41;0.95;;;0.60;;
24409;SDS011;12543;53.364;-1.504;2022-09-17T18:51:09;1.25;;;0.60;;
24409;SDS011;12543;53.364;-1.504;2022-09-17T18:53:38;1.35;;;0.60;;
24409;SDS011;12543;53.364;-1.504;2022-09-17T18:56:10;1.20;;;0.70;;
24409;SDS011;12543;53.364;-1.504;2022-09-17T18:58:44;0.40;;;0.40;;
24409;SDS011;12543;53.364;-1.504;2022-09-17T19:01:13;0.73;;;0.50;;
24409;SDS011;12543;53.364;-1.504;2022-09-17T19:03:41;2.20;;;0.60;;
24409;SDS011;12543;53.364;-1.504;2022-09-17T19:06:09;1.15;;;0.50;;
24409;SDS011;12543;53.364;-1.504;2022-09-17T19:08:37;1.10;;;0.60;;
24409;SDS011;12543;53.364;-1.504;2022-09-17T19:11:06;0.40;;;0.32;;
24409;SDS011;12543;53.364;-1.504;2022-09-17T19:13:37;0.70;;;0.43;;
24409;SDS011;12543;53.364;-1.504;2022-09-17T19:16:10;0.40;;;0.40;;
24409;SDS011;12543;53.364;-1.504;2022-09-17T19:18:39;0.40;;;0.30;;
24409;SDS011;12543;53.364;-1.504;2022-09-17T19:21:10;0.73;;;0.50;;
24409;SDS011;12543;53.364;-1.504;2022-09-17T19:23:43;1.10;;;0.40;;
24409;SDS011;12543;53.364;-1.504;2022-09-17T19:26:19;0.68;;;0.63;;
24409;SDS011;12543;53.364;-1.504;2022-09-17T19:28:52;0.52;;;0.40;;
24409;SDS011;12543;53.364;-1.504;2022-09-17T19:31:21;0.30;;;0.30;;
24409;SDS011;12543;53.364;-1.504;2022-09-17T19:33:48;0.85;;;0.60;;
24409;SDS011;12543;53.364;-1.504;2022-09-17T19:36:17;0.30;;;0.30;;
24409;SDS011;12543;53.364;-1.504;2022-09-17T19:38:44;2.92;;;0.47;;
24409;SDS011;12543;53.364;-1.504;2022-09-17T19:41:13;1.80;;;0.67;;
24409;SDS011;12543;53.364;-1.504;2022-09-17T19:43:41;0.50;;;0.50;;
24409;SDS011;12543;53.364;-1.504;2022-09-17T19:46:16;0.75;;;0.57;;
24409;SDS011;12543;53.364;-1.504;2022-09-17T19:48:46;1.20;;;0.40;;
24409;SDS011;12543;53.364;-1.504;2022-09-17T19:51:15;0.77;;;0.50;;
24409;SDS011;12543;53.364;-1.504;2022-09-17T19:53:43;1.23;;;0.47;;
24409;SDS011;12543;53.364;-1.504;2022-09-17T19:56:11;0.60;;;0.60;;
24409;SDS011;12543;53.364;-1.504;2022-09-17T19:58:40;0.50;;;0.50;;
24409;SDS011;12543;53.364;-1.504;2022-09-17T20:01:08;0.70;;;0.52;;
24409;SDS011;12543;53.364;-1.504;2022-09-17T20:03:37;0.50;;;0.50;;
24409;SDS011;12543;53.364;-1.504;2022-09-17T20:08:33;1.30;;;0.55;;
24409;SDS011;12543;53.364;-1.504;2022-09-17T20:11:08;0.70;;;0.50;;
24409;SDS011;12543;53.364;-1.504;2022-09-17T20:13:36;1.33;;;0.60;;
24409;SDS011;12543;53.364;-1.504;2022-09-17T20:16:13;0.63;;;0.63;;
24409;SDS011;12543;53.364;-1.504;2022-09-17T20:18:45;0.70;;;0.60;;
24409;SDS011;12543;53.364;-1.504;2022-09-17T20:21:14;1.70;;;0.40;;
24409;SDS011;12543;53.364;-1.504;2022-09-17T20:23:46;1.13;;;0.80;;
24409;SDS011;12543;53.364;-1.504;2022-09-17T20:26:13;1.05;;;0.90;;
24409;SDS011;12543;53.364;-1.504;2022-09-17T20:28:41;1.58;;;1.20;;
24409;SDS011;12543;53.364;-1.504;2022-09-17T20:31:10;1.20;;;1.10;;
24409;SDS011;12543;53.364;-1.504;2022-09-17T20:33:40;1.35;;;1.08;;
24409;SDS011;12543;53.364;-1.504;2022-09-17T20:36:12;1.70;;;1.30;;
24409;SDS011;12543;53.364;-1.504;2022-09-17T20:38:41;1.35;;;1.10;;
24409;SDS011;12543;53.364;-1.504;2022-09-17T20:41:28;2.67;;;1.25;;
24409;SDS011;12543;53.364;-1.504;2022-09-17T20:43:57;1.65;;;1.17;;
24409;SDS011;12543;53.364;-1.504;2022-09-17T20:46:24;1.33;;;1.00;;
24409;SDS011;12543;53.364;-1.504;2022-09-17T20:48:55;1.17;;;0.75;;
24409;SDS011;12543;53.364;-1.504;2022-09-17T20:53:54;1.33;;;0.60;;
24409;SDS011;12543;53.364;-1.504;2022-09-17T20:56:23;0.98;;;0.60;;
24409;SDS011;12543;53.364;-1.504;2022-09-17T20:58:53;0.65;;;0.40;;
24409;SDS011;12543;53.364;-1.504;2022-09-17T21:01:33;0.82;;;0.57;;
24409;SDS011;12543;53.364;-1.504;2022-09-17T21:04:04;0.68;;;0.60;;
24409;SDS011;12543;53.364;-1.504;2022-09-17T21:06:34;0.95;;;0.50;;
24409;SDS011;12543;53.364;-1.504;2022-09-17T21:09:03;0.95;;;0.50;;
24409;SDS011;12543;53.364;-1.504;2022-09-17T21:11:35;1.05;;;0.60;;
24409;SDS011;12543;53.364;-1.504;2022-09-17T21:14:03;2.00;;;0.80;;
24409;SDS011;12543;53.364;-1.504;2022-09-17T21:16:30;0.90;;;0.70;;
24409;SDS011;12543;53.364;-1.504;2022-09-17T21:18:58;0.60;;;0.60;;
24409;SDS011;12543;53.364;-1.504;2022-09-17T21:21:28;1.60;;;0.88;;
24409;SDS011;12543;53.364;-1.504;2022-09-17T21:23:58;0.70;;;0.70;;
24409;SDS011;12543;53.364;-1.504;2022-09-17T21:26:26;0.90;;;0.70;;
24409;SDS011;12543;53.364;-1.504;2022-09-17T21:28:54;1.57;;;0.60;;
24409;SDS011;12543;53.364;-1.504;2022-09-17T21:31:23;1.20;;;0.70;;
24409;SDS011;12543;53.364;-1.504;2022-09-17T21:33:58;0.73;;;0.60;;
24409;SDS011;12543;53.364;-1.504;2022-09-17T21:36:27;0.93;;;0.50;;
24409;SDS011;12543;53.364;-1.504;2022-09-17T21:39:03;1.00;;;0.60;;
24409;SDS011;12543;53.364;-1.504;2022-09-17T21:41:32;0.63;;;0.50;;
24409;SDS011;12543;53.364;-1.504;2022-09-17T21:44:01;1.02;;;0.60;;
24409;SDS011;12543;53.364;-1.504;2022-09-17T21:46:31;0.85;;;0.60;;
24409;SDS011;12543;53.364;-1.504;2022-09-17T21:49:00;0.73;;;0.60;;
24409;SDS011;12543;53.364;-1.504;2022-09-17T21:51:29;0.73;;;0.60;;
24409;SDS011;12543;53.364;-1.504;2022-09-17T21:54:06;0.68;;;0.52;;
24409;SDS011;12543;53.364;-1.504;2022-09-17T21:56:41;1.25;;;0.47;;
24409;SDS011;12543;53.364;-1.504;2022-09-17T21:59:10;1.13;;;0.60;;
24409;SDS011;12543;53.364;-1.504;2022-09-17T22:01:43;0.55;;;0.50;;
24409;SDS011;12543;53.364;-1.504;2022-09-17T22:04:14;0.77;;;0.50;;
24409;SDS011;12543;53.364;-1.504;2022-09-17T22:06:42;1.40;;;0.60;;
24409;SDS011;12543;53.364;-1.504;2022-09-17T22:09:12;1.55;;;0.55;;
24409;SDS011;12543;53.364;-1.504;2022-09-17T22:11:41;0.50;;;0.50;;
24409;SDS011;12543;53.364;-1.504;2022-09-17T22:14:09;0.30;;;0.30;;
24409;SDS011;12543;53.364;-1.504;2022-09-17T22:16:38;0.52;;;0.52;;
24409;SDS011;12543;53.364;-1.504;2022-09-17T22:19:07;0.45;;;0.45;;
24409;SDS011;12543;53.364;-1.504;2022-09-17T22:21:38;1.15;;;0.68;;
24409;SDS011;12543;53.364;-1.504;2022-09-17T22:24:08;1.00;;;0.50;;
24409;SDS011;12543;53.364;-1.504;2022-09-17T22:26:37;0.95;;;0.40;;
24409;SDS011;12543;53.364;-1.504;2022-09-17T22:29:12;0.50;;;0.47;;
24409;SDS011;12543;53.364;-1.504;2022-09-17T22:31:44;0.40;;;0.40;;
24409;SDS011;12543;53.364;-1.504;2022-09-17T22:34:14;0.40;;;0.40;;
24409;SDS011;12543;53.364;-1.504;2022-09-17T22:36:46;0.90;;;0.40;;
24409;SDS011;12543;53.364;-1.504;2022-09-17T22:39:13;0.40;;;0.40;;
24409;SDS011;12543;53.364;-1.504;2022-09-17T22:41:40;0.50;;;0.43;;
24409;SDS011;12543;53.364;-1.504;2022-09-17T22:44:12;0.57;;;0.43;;
24409;SDS011;12543;53.364;-1.504;2022-09-17T22:46:42;0.95;;;0.55;;
24409;SDS011;12543;53.364;-1.504;2022-09-17T22:49:11;1.70;;;0.55;;
24409;SDS011;12543;53.364;-1.504;2022-09-17T22:51:38;0.77;;;0.57;;
24409;SDS011;12543;53.364;-1.504;2022-09-17T22:54:08;1.65;;;0.40;;
24409;SDS011;12543;53.364;-1.504;2022-09-17T22:56:36;0.40;;;0.40;;
24409;SDS011;12543;53.364;-1.504;2022-09-17T22:59:03;0.68;;;0.50;;
24409;SDS011;12543;53.364;-1.504;2022-09-17T23:01:31;0.70;;;0.40;;
24409;SDS011;12543;53.364;-1.504;2022-09-17T23:03:59;0.85;;;0.68;;
24409;SDS011;12543;53.364;-1.504;2022-09-17T23:06:28;0.70;;;0.52;;
24409;SDS011;12543;53.364;-1.504;2022-09-17T23:08:57;0.90;;;0.60;;
24409;SDS011;12543;53.364;-1.504;2022-09-17T23:11:32;0.82;;;0.60;;
24409;SDS011;12543;53.364;-1.504;2022-09-17T23:14:01;1.05;;;0.40;;
24409;SDS011;12543;53.364;-1.504;2022-09-17T23:16:35;0.68;;;0.50;;
24409;SDS011;12543;53.364;-1.504;2022-09-17T23:19:03;1.13;;;0.50;;
24409;SDS011;12543;53.364;-1.504;2022-09-17T23:21:30;0.90;;;0.50;;
24409;SDS011;12543;53.364;-1.504;2022-09-17T23:23:57;0.65;;;0.40;;
24409;SDS011;12543;53.364;-1.504;2022-09-17T23:26:25;1.17;;;0.40;;
24409;SDS011;12543;53.364;-1.504;2022-09-17T23:28:53;0.52;;;0.52;;
24409;SDS011;12543;53.364;-1.504;2022-09-17T23:31:27;0.70;;;0.40;;
24409;SDS011;12543;53.364;-1.504;2022-09-17T23:33:54;0.85;;;0.52;;
24409;SDS011;12543;53.364;-1.504;2022-09-17T23:36:23;0.45;;;0.30;;
24409;SDS011;12543;53.364;-1.504;2022-09-17T23:38:52;0.43;;;0.40;;
24409;SDS011;12543;53.364;-1.504;2022-09-17T23:46:17;0.80;;;0.40;;
24409;SDS011;12543;53.364;-1.504;2022-09-17T23:48:46;0.30;;;0.30;;
24409;SDS011;12543;53.364;-1.504;2022-09-17T23:51:14;0.47;;;0.40;;
24409;SDS011;12543;53.364;-1.504;2022-09-17T23:53:44;0.73;;;0.43;;
24409;SDS011;12543;53.364;-1.504;2022-09-17T23:56:14;0.57;;;0.30;;
24409;SDS011;12543;53.364;-1.504;2022-09-17T23:58:46;0.65;;;0.40;;
